createdAt,value
2023-08-16T00:00:09.963Z,40.64
2023-08-16T00:03:03.228Z,40.67
2023-08-16T00:05:34.331Z,40.72
2023-08-16T00:08:05.529Z,40.75
2023-08-16T00:10:36.293Z,40.89
2023-08-16T00:13:07.656Z,40.96
2023-08-16T00:15:38.224Z,41.10
2023-08-16T00:18:09.634Z,41.24
2023-08-16T00:20:40.451Z,41.15
2023-08-16T00:23:11.266Z,41.37
2023-08-16T00:25:42.242Z,41.30
2023-08-16T00:28:12.953Z,41.36
2023-08-16T00:30:43.738Z,41.35
2023-08-16T00:33:14.785Z,41.50
2023-08-16T00:35:45.429Z,41.52
2023-08-16T00:38:16.248Z,41.50
2023-08-16T00:40:50.753Z,41.66
2023-08-16T00:43:21.775Z,41.75
2023-08-16T00:45:52.775Z,41.71
2023-08-16T00:48:23.903Z,41.75
2023-08-16T00:50:54.481Z,41.80
2023-08-16T00:53:25.508Z,41.75
2023-08-16T00:55:56.410Z,41.76
2023-08-16T00:58:27.589Z,41.74
2023-08-16T01:00:58.785Z,41.71
2023-08-16T01:03:29.904Z,41.76
2023-08-16T01:06:00.610Z,41.70
2023-08-16T01:08:33.548Z,41.70
2023-08-16T01:11:06.365Z,41.67
2023-08-16T01:13:39.517Z,41.79
2023-08-16T01:16:13.032Z,41.84
2023-08-16T01:18:44.145Z,41.82
2023-08-16T01:21:17.257Z,41.76
2023-08-16T01:23:54.917Z,41.79
2023-08-16T01:26:29.672Z,41.72
2023-08-16T01:29:04.081Z,41.82
2023-08-16T01:31:36.583Z,41.75
2023-08-16T01:34:08.143Z,41.75
2023-08-16T01:36:38.706Z,41.88
2023-08-16T01:39:09.479Z,41.81
2023-08-16T01:41:42.773Z,41.85
2023-08-16T01:44:14.439Z,41.74
2023-08-16T01:46:48.824Z,41.82
2023-08-16T01:49:19.590Z,41.86
2023-08-16T01:51:50.261Z,41.82
2023-08-16T01:54:36.512Z,41.79
2023-08-16T01:57:08.094Z,41.89
2023-08-16T01:59:39.773Z,41.84
2023-08-16T02:02:10.429Z,41.79
2023-08-16T02:04:41.511Z,41.94
2023-08-16T02:07:12.055Z,41.92
2023-08-16T02:09:44.303Z,42.00
2023-08-16T02:12:14.945Z,42.00
2023-08-16T02:41:51.485Z,43.38
2023-08-16T02:44:22.130Z,43.78
2023-08-16T02:46:53.050Z,44.00
2023-08-16T02:49:23.905Z,44.24
2023-08-16T02:51:54.424Z,44.36
2023-08-16T02:54:25.138Z,44.03
2023-08-16T02:56:55.829Z,44.23
2023-08-16T02:59:26.618Z,44.47
2023-08-16T03:01:57.337Z,44.27
2023-08-16T03:04:28.250Z,44.29
2023-08-16T03:06:58.932Z,44.34
2023-08-16T03:09:29.754Z,44.26
2023-08-16T03:12:00.282Z,44.26
2023-08-16T03:14:31.041Z,44.29
2023-08-16T03:17:01.973Z,44.28
2023-08-16T03:19:32.584Z,44.40
2023-08-16T03:22:03.779Z,44.42
2023-08-16T03:24:34.593Z,44.43
2023-08-16T03:27:05.284Z,44.63
2023-08-16T03:29:36.049Z,44.60
2023-08-16T03:32:07.078Z,44.74
2023-08-16T03:34:37.853Z,45.01
2023-08-16T03:37:08.889Z,45.06
2023-08-16T03:39:41.065Z,45.12
2023-08-16T03:42:12.833Z,45.23
2023-08-16T03:44:44.166Z,45.10
2023-08-16T03:47:14.769Z,44.88
2023-08-16T03:49:46.493Z,44.94
2023-08-16T03:52:17.051Z,44.85
2023-08-16T03:54:47.773Z,44.74
2023-08-16T03:57:18.242Z,44.80
2023-08-16T03:59:49.218Z,44.82
2023-08-16T04:02:20.021Z,44.75
2023-08-16T04:04:53.366Z,44.66
2023-08-16T04:07:25.001Z,44.55
2023-08-16T04:09:55.994Z,44.53
2023-08-16T04:12:26.596Z,44.53
2023-08-16T04:14:57.326Z,44.51
2023-08-16T04:17:28.118Z,44.33
2023-08-16T04:19:59.158Z,44.30
2023-08-16T04:22:30.061Z,44.25
2023-08-16T04:25:00.918Z,44.33
2023-08-16T04:27:31.840Z,44.35
2023-08-16T04:30:08.219Z,44.39
2023-08-16T04:32:49.821Z,44.34
2023-08-16T04:35:23.167Z,44.38
2023-08-16T04:37:54.508Z,44.43
2023-08-16T04:40:26.429Z,44.90
2023-08-16T04:43:31.838Z,45.14
2023-08-16T04:49:54.920Z,44.05
2023-08-16T04:52:31.736Z,44.66
2023-08-16T04:55:11.246Z,44.48
2023-08-16T04:57:50.710Z,45.03
2023-08-16T05:00:24.602Z,45.45
2023-08-16T05:03:06.931Z,45.12
2023-08-16T05:05:45.234Z,45.08
2023-08-16T05:08:27.254Z,44.82
2023-08-16T05:10:58.882Z,44.82
2023-08-16T05:13:29.880Z,45.02
2023-08-16T05:16:00.865Z,45.49
2023-08-16T05:18:39.823Z,44.74
2023-08-16T05:21:15.786Z,45.01
2023-08-16T05:23:56.734Z,44.14
2023-08-16T05:26:28.054Z,44.47
2023-08-16T05:28:59.550Z,45.51
2023-08-16T05:31:30.549Z,46.08
2023-08-16T05:34:05.205Z,45.85
2023-08-16T05:36:47.656Z,45.79
2023-08-16T05:39:20.251Z,45.12
2023-08-16T05:41:51.307Z,44.88
2023-08-16T05:44:21.984Z,44.42
2023-08-16T05:46:52.876Z,44.11
2023-08-16T05:49:23.867Z,43.66
2023-08-16T05:51:54.885Z,43.22
2023-08-16T05:54:25.698Z,43.37
2023-08-16T05:57:02.649Z,43.82
2023-08-16T05:59:33.271Z,44.17
2023-08-16T06:02:04.404Z,44.28
2023-08-16T06:04:38.003Z,44.14
2023-08-16T06:07:09.278Z,44.11
2023-08-16T06:09:40.608Z,44.16
2023-08-16T06:12:11.425Z,44.11
2023-08-16T06:14:42.600Z,44.01
2023-08-16T06:17:19.140Z,44.29
2023-08-16T06:19:51.444Z,44.53
2023-08-16T06:22:27.594Z,43.53
2023-08-16T06:24:59.677Z,43.09
2023-08-16T06:27:30.955Z,42.95
2023-08-16T06:30:01.597Z,42.76
2023-08-16T06:32:32.532Z,42.71
2023-08-16T06:35:05.276Z,42.70
2023-08-16T06:37:38.265Z,42.60
2023-08-16T06:40:13.155Z,42.52
2023-08-16T06:42:51.612Z,42.35
2023-08-16T06:45:25.378Z,42.32
2023-08-16T06:47:56.284Z,42.33
2023-08-16T06:50:28.052Z,42.35
2023-08-16T06:52:59.186Z,42.40
2023-08-16T06:55:29.913Z,42.41
2023-08-16T06:58:02.454Z,42.53
2023-08-16T07:00:33.029Z,42.66
2023-08-16T07:03:04.889Z,42.49
2023-08-16T07:05:35.657Z,42.72
2023-08-16T07:08:07.235Z,42.81
2023-08-16T07:10:38.035Z,42.70
2023-08-16T07:13:09.096Z,42.60
2023-08-16T07:15:39.798Z,42.65
2023-08-16T07:18:10.918Z,42.64
2023-08-16T07:20:42.230Z,42.60
2023-08-16T07:23:13.013Z,42.57
2023-08-16T07:25:43.742Z,42.52
2023-08-16T07:28:16.993Z,42.75
2023-08-16T07:30:47.873Z,42.57
2023-08-16T07:33:20.758Z,42.59
2023-08-16T07:35:53.120Z,42.68
2023-08-16T07:38:29.423Z,42.67
2023-08-16T07:41:00.433Z,42.73
2023-08-16T07:43:32.474Z,42.87
2023-08-16T07:46:03.427Z,42.90
2023-08-16T07:48:34.240Z,43.00
2023-08-16T07:51:05.054Z,43.06
2023-08-16T07:53:39.044Z,43.37
2023-08-16T07:56:09.555Z,43.82
2023-08-16T07:58:40.362Z,44.24
2023-08-16T08:01:11.280Z,44.67
2023-08-16T08:03:42.105Z,44.87
2023-08-16T08:06:12.959Z,45.01
2023-08-16T08:08:43.883Z,45.17
2023-08-16T08:11:15.645Z,45.48
2023-08-16T08:13:46.412Z,45.47
2023-08-16T08:16:17.097Z,45.58
2023-08-16T08:18:47.901Z,45.76
2023-08-16T08:21:18.510Z,45.89
2023-08-16T08:23:49.426Z,45.74
2023-08-16T08:26:19.926Z,45.70
2023-08-16T08:28:52.690Z,45.67
2023-08-16T08:31:25.147Z,45.52
2023-08-16T08:33:56.707Z,45.64
2023-08-16T08:36:27.975Z,45.78
2023-08-16T08:38:59.634Z,45.76
2023-08-16T08:41:41.820Z,45.72
2023-08-16T08:44:18.749Z,45.63
2023-08-16T08:46:53.247Z,45.30
2023-08-16T08:49:28.425Z,45.11
2023-08-16T08:51:59.938Z,44.81
2023-08-16T08:54:30.829Z,44.67
2023-08-16T08:57:01.875Z,44.45
2023-08-16T08:59:34.380Z,44.33
2023-08-16T09:02:05.732Z,44.01
2023-08-16T09:04:37.651Z,43.84
2023-08-16T09:07:09.740Z,43.69
2023-08-16T09:09:40.704Z,43.49
2023-08-16T09:12:11.575Z,43.56
2023-08-16T09:14:42.387Z,43.33
2023-08-16T09:17:12.888Z,43.14
2023-08-16T09:19:46.913Z,42.85
2023-08-16T09:22:17.693Z,42.36
2023-08-16T09:24:50.077Z,42.35
2023-08-16T09:27:24.153Z,42.20
2023-08-16T09:29:57.113Z,42.08
2023-08-16T09:32:35.446Z,42.04
2023-08-16T09:35:08.232Z,41.84
2023-08-16T09:37:38.983Z,41.68
2023-08-16T09:40:12.689Z,41.78
2023-08-16T09:42:43.567Z,41.34
2023-08-16T09:45:14.336Z,41.21
2023-08-16T09:50:23.518Z,41.05
2023-08-16T09:52:54.179Z,40.71
2023-08-16T09:55:35.035Z,40.88
2023-08-16T09:58:09.021Z,40.82
2023-08-16T10:00:39.698Z,40.64
2023-08-16T10:03:11.296Z,40.10
2023-08-16T10:05:46.731Z,39.99
2023-08-16T10:08:18.936Z,40.08
2023-08-16T10:10:49.964Z,39.82
2023-08-16T10:13:20.929Z,39.52
2023-08-16T10:15:53.759Z,39.63
2023-08-16T10:18:25.640Z,39.53
2023-08-16T10:21:01.995Z,39.60
2023-08-16T10:23:33.773Z,39.64
2023-08-16T10:26:11.024Z,39.33
2023-08-16T10:28:41.912Z,39.03
2023-08-16T10:31:14.543Z,38.84
2023-08-16T10:33:47.997Z,38.69
2023-08-16T10:36:19.135Z,38.38
2023-08-16T10:38:59.162Z,38.39
2023-08-16T10:41:44.405Z,38.09
2023-08-16T10:44:23.565Z,38.14
2023-08-16T10:46:54.504Z,37.64
2023-08-16T10:49:25.364Z,37.66
2023-08-16T10:51:57.097Z,37.68
2023-08-16T10:54:36.107Z,37.48
2023-08-16T10:57:09.252Z,37.49
2023-08-16T10:59:40.415Z,37.67
2023-08-16T11:02:17.588Z,37.41
2023-08-16T11:04:49.544Z,37.27
2023-08-16T11:07:20.819Z,37.10
2023-08-16T11:09:51.468Z,37.16
2023-08-16T11:12:22.116Z,37.16
2023-08-16T11:14:52.913Z,37.11
2023-08-16T11:17:24.298Z,36.95
2023-08-16T11:19:56.131Z,36.81
2023-08-16T11:22:29.627Z,36.87
2023-08-16T11:25:01.768Z,36.83
2023-08-16T11:27:32.519Z,36.69
2023-08-16T11:30:21.224Z,36.66
2023-08-16T11:32:52.075Z,36.56
2023-08-16T11:35:22.731Z,36.32
2023-08-16T11:37:53.575Z,36.31
2023-08-16T11:40:25.454Z,35.92
2023-08-16T11:42:56.398Z,36.03
2023-08-16T11:45:26.986Z,35.81
2023-08-16T11:47:57.846Z,35.79
2023-08-16T11:50:29.007Z,35.44
2023-08-16T11:53:00.556Z,34.99
2023-08-16T11:55:32.239Z,34.90
2023-08-16T11:58:10.439Z,34.62
2023-08-16T12:00:43.867Z,34.61
2023-08-16T12:03:15.420Z,34.48
2023-08-16T12:05:48.057Z,34.38
2023-08-16T12:08:23.729Z,34.49
2023-08-16T12:10:55.781Z,34.50
2023-08-16T12:13:26.724Z,34.37
2023-08-16T12:15:57.677Z,34.22
2023-08-16T12:18:28.774Z,34.39
2023-08-16T12:21:04.562Z,34.36
2023-08-16T12:23:35.776Z,34.19
2023-08-16T12:26:07.609Z,34.39
2023-08-16T12:28:41.011Z,34.29
2023-08-16T12:31:12.520Z,34.43
2023-08-16T12:33:44.963Z,34.28
2023-08-16T12:36:17.391Z,34.02
2023-08-16T12:38:48.205Z,34.04
2023-08-16T12:41:18.809Z,33.97
2023-08-16T12:43:49.563Z,33.80
2023-08-16T12:46:20.268Z,33.78
2023-08-16T12:48:51.147Z,33.56
2023-08-16T12:51:21.779Z,33.47
2023-08-16T12:53:52.521Z,33.34
2023-08-16T12:56:23.412Z,33.12
2023-08-16T12:58:57.154Z,33.34
2023-08-16T13:04:02.072Z,33.06
2023-08-16T13:06:33.418Z,32.93
2023-08-16T13:09:06.073Z,32.56
2023-08-16T13:11:37.370Z,32.29
2023-08-16T13:14:11.661Z,32.30
2023-08-16T13:16:47.430Z,32.22
2023-08-16T13:19:25.521Z,32.03
2023-08-16T13:24:39.077Z,31.46
2023-08-16T13:27:17.745Z,31.13
2023-08-16T13:34:58.132Z,30.38
2023-08-16T13:37:44.514Z,30.30
2023-08-16T13:40:20.835Z,30.06
2023-08-16T13:45:25.678Z,29.49
2023-08-16T13:47:56.492Z,29.32
2023-08-16T13:50:33.220Z,29.03
2023-08-16T13:53:07.911Z,28.51
2023-08-16T13:55:38.595Z,28.27
2023-08-16T13:58:09.068Z,28.07
2023-08-16T14:00:39.990Z,27.73
2023-08-16T14:03:10.770Z,27.43
2023-08-16T14:05:41.643Z,26.84
2023-08-16T14:08:12.267Z,26.33
2023-08-16T14:10:46.898Z,26.17
2023-08-16T14:13:17.494Z,25.86
2023-08-16T14:15:51.260Z,25.48
2023-08-16T14:18:21.931Z,25.59
2023-08-16T14:20:52.615Z,25.39
2023-08-16T14:23:23.277Z,25.20
2023-08-16T14:25:57.745Z,24.77
2023-08-16T14:28:31.551Z,24.34
2023-08-16T14:31:02.347Z,24.32
2023-08-16T14:33:33.376Z,23.95
2023-08-16T14:36:05.460Z,24.06
2023-08-16T14:38:43.158Z,23.85
2023-08-16T14:41:19.566Z,23.82
2023-08-16T14:43:51.432Z,23.71
2023-08-16T14:46:23.561Z,23.57
2023-08-16T14:48:55.190Z,23.62
2023-08-16T14:51:25.934Z,23.16
2023-08-16T14:53:56.626Z,23.12
2023-08-16T14:56:27.850Z,23.11
2023-08-16T14:58:58.329Z,22.81
2023-08-16T15:01:31.179Z,22.37
2023-08-16T15:04:04.264Z,21.94
2023-08-16T15:06:37.421Z,21.65
2023-08-16T15:09:10.827Z,21.85
2023-08-16T15:11:41.819Z,21.76
2023-08-16T15:14:15.531Z,21.35
2023-08-16T15:16:46.348Z,21.53
2023-08-16T15:19:19.986Z,21.81
2023-08-16T15:21:53.310Z,22.02
2023-08-16T15:24:24.008Z,22.05
2023-08-16T15:26:54.966Z,22.23
2023-08-16T15:29:25.568Z,22.10
2023-08-16T15:31:56.355Z,22.11
2023-08-16T15:34:27.232Z,22.30
2023-08-16T15:36:58.233Z,22.10
2023-08-16T15:39:29.340Z,22.08
2023-08-16T15:42:00.687Z,22.31
2023-08-16T15:44:31.262Z,22.15
2023-08-16T15:47:02.266Z,22.19
2023-08-16T15:49:32.892Z,22.25
2023-08-16T15:52:06.019Z,22.24
2023-08-16T15:54:37.878Z,22.31
2023-08-16T15:57:08.943Z,22.22
2023-08-16T15:59:48.040Z,22.30
2023-08-16T16:02:19.523Z,22.22
2023-08-16T16:04:52.895Z,22.30
2023-08-16T16:07:24.495Z,22.49
2023-08-16T16:09:57.099Z,22.29
2023-08-16T16:12:27.992Z,22.28
2023-08-16T16:14:58.746Z,22.37
2023-08-16T16:17:30.223Z,22.33
2023-08-16T16:20:01.091Z,22.24
2023-08-16T16:22:31.829Z,22.23
2023-08-16T16:25:02.345Z,22.15
2023-08-16T16:27:33.144Z,22.24
2023-08-16T16:30:03.646Z,22.07
2023-08-16T16:32:34.367Z,22.07
2023-08-16T16:35:05.645Z,22.17
2023-08-16T16:37:36.601Z,22.37
2023-08-16T16:40:09.039Z,22.32
2023-08-16T16:42:39.953Z,22.49
2023-08-16T16:45:12.645Z,22.30
2023-08-16T16:47:44.493Z,22.52
2023-08-16T16:50:15.006Z,22.65
2023-08-16T16:52:45.912Z,22.75
2023-08-16T16:55:16.618Z,23.01
2023-08-16T16:57:47.664Z,23.03
2023-08-16T17:00:18.856Z,23.08
2023-08-16T17:02:51.305Z,23.30
2023-08-16T17:05:22.461Z,23.32
2023-08-16T17:07:53.197Z,23.32
2023-08-16T17:10:27.128Z,23.46
2023-08-16T17:13:00.524Z,23.54
2023-08-16T17:15:31.099Z,23.88
2023-08-16T17:18:01.959Z,23.94
2023-08-16T17:20:33.050Z,24.12
2023-08-16T17:23:04.535Z,24.14
2023-08-16T17:25:35.246Z,24.28
2023-08-16T17:28:06.517Z,24.40
2023-08-16T17:30:39.508Z,24.54
2023-08-16T17:33:10.357Z,24.67
2023-08-16T17:35:44.279Z,24.85
2023-08-16T17:38:14.955Z,24.95
2023-08-16T17:40:45.622Z,25.19
2023-08-16T17:43:16.420Z,25.31
2023-08-16T17:45:46.890Z,25.57
2023-08-16T17:48:17.573Z,25.79
2023-08-16T17:50:48.093Z,25.74
2023-08-16T17:53:19.053Z,26.01
2023-08-16T17:55:50.180Z,26.02
2023-08-16T17:58:22.434Z,26.00
2023-08-16T18:00:56.309Z,26.29
2023-08-16T18:03:31.800Z,26.60
2023-08-16T18:06:03.643Z,26.68
2023-08-16T18:08:34.504Z,26.73
2023-08-16T18:11:05.059Z,26.84
2023-08-16T18:13:38.164Z,26.97
2023-08-16T18:16:09.128Z,27.16
2023-08-16T18:18:39.991Z,27.30
2023-08-16T18:21:10.647Z,27.60
2023-08-16T18:23:42.045Z,27.68
2023-08-16T18:26:12.809Z,27.80
2023-08-16T18:28:43.593Z,28.14
2023-08-16T18:31:14.796Z,28.25
2023-08-16T18:33:45.490Z,28.24
2023-08-16T18:36:16.362Z,28.53
2023-08-16T18:38:47.304Z,28.65
2023-08-16T18:41:18.031Z,28.96
2023-08-16T18:43:49.011Z,29.09
2023-08-16T18:46:19.441Z,29.16
2023-08-16T18:48:50.620Z,29.37
2023-08-16T18:51:21.124Z,29.54
2023-08-16T18:53:51.694Z,29.78
2023-08-16T18:56:23.218Z,29.83
2023-08-16T18:58:54.023Z,29.95
2023-08-16T19:01:25.138Z,30.01
2023-08-16T19:03:55.995Z,30.17
2023-08-16T19:06:27.646Z,30.49
2023-08-16T19:08:58.691Z,30.81
2023-08-16T19:11:29.351Z,30.69
2023-08-16T19:14:00.251Z,30.77
2023-08-16T19:16:30.955Z,30.98
2023-08-16T19:19:06.106Z,30.94
2023-08-16T19:21:39.461Z,31.22
2023-08-16T19:24:10.431Z,31.31
2023-08-16T19:26:41.177Z,31.64
2023-08-16T19:29:12.762Z,31.66
2023-08-16T19:31:43.539Z,31.60
2023-08-16T19:34:14.156Z,31.91
2023-08-16T19:36:45.875Z,31.94
2023-08-16T19:39:16.633Z,32.05
2023-08-16T19:41:47.364Z,32.30
2023-08-16T19:44:19.613Z,32.40
2023-08-16T19:46:50.131Z,32.58
2023-08-16T19:49:20.855Z,32.51
2023-08-16T19:51:51.576Z,32.85
2023-08-16T19:54:22.450Z,33.01
2023-08-16T19:56:53.126Z,33.27
2023-08-16T19:59:24.044Z,33.24
2023-08-16T20:01:54.649Z,33.16
2023-08-16T20:04:25.499Z,33.33
2023-08-16T20:06:57.180Z,33.62
2023-08-16T20:09:28.033Z,33.62
2023-08-16T20:11:58.639Z,33.73
2023-08-16T20:14:29.461Z,34.02
2023-08-16T20:17:01.060Z,34.18
2023-08-16T20:19:31.824Z,34.46
2023-08-16T20:22:02.494Z,34.70
2023-08-16T20:24:33.925Z,34.78
2023-08-16T20:27:04.532Z,34.74
2023-08-16T20:29:35.309Z,34.67
2023-08-16T20:32:08.340Z,34.45
2023-08-16T20:34:51.410Z,34.66
2023-08-16T20:37:23.027Z,34.47
2023-08-16T20:39:54.363Z,34.54
2023-08-16T20:42:34.718Z,34.52
2023-08-16T20:45:06.820Z,34.62
2023-08-16T20:47:41.102Z,34.78
2023-08-16T20:50:15.237Z,34.72
2023-08-16T20:52:46.056Z,34.76
2023-08-16T20:55:17.002Z,34.76
2023-08-16T20:57:47.811Z,35.04
2023-08-16T21:00:18.650Z,35.15
2023-08-16T21:02:49.343Z,35.40
2023-08-16T21:05:20.231Z,35.37
2023-08-16T21:07:51.032Z,35.49
2023-08-16T21:10:21.877Z,35.68
2023-08-16T21:12:52.519Z,35.78
2023-08-16T21:15:23.486Z,36.16
2023-08-16T21:17:54.208Z,36.22
2023-08-16T21:20:26.054Z,36.54
2023-08-16T21:22:56.916Z,36.78
2023-08-16T21:25:27.732Z,37.07
2023-08-16T21:27:58.261Z,37.55
2023-08-16T21:30:46.173Z,37.75
2023-08-16T21:33:16.907Z,38.02
2023-08-16T21:35:54.860Z,38.22
2023-08-16T21:38:32.938Z,38.37
2023-08-16T21:41:03.894Z,38.44
2023-08-16T21:43:34.526Z,38.58
2023-08-16T21:46:05.607Z,38.65
2023-08-16T21:48:35.909Z,38.85
2023-08-16T21:51:06.955Z,38.93
2023-08-16T21:53:37.641Z,39.03
2023-08-16T21:56:09.124Z,39.21
2023-08-16T21:58:40.195Z,39.30
2023-08-16T22:01:11.150Z,39.35
2023-08-16T22:03:43.331Z,39.36
2023-08-16T22:06:15.246Z,39.57
2023-08-16T22:08:48.391Z,39.73
2023-08-16T22:11:19.202Z,39.78
2023-08-16T22:13:49.734Z,40.01
2023-08-16T22:16:20.695Z,39.86
2023-08-16T22:18:51.164Z,40.01
2023-08-16T22:21:21.844Z,39.88
2023-08-16T22:23:52.541Z,40.11
2023-08-16T22:26:23.361Z,40.17
2023-08-16T22:28:57.742Z,40.23
2023-08-16T22:31:29.168Z,40.33
2023-08-16T22:34:00.706Z,40.44
2023-08-16T22:36:31.436Z,40.32
2023-08-16T22:39:02.567Z,40.50
2023-08-16T22:41:33.224Z,40.62
2023-08-16T22:44:03.893Z,40.52
2023-08-16T22:46:34.688Z,40.60
2023-08-16T22:49:05.757Z,40.64
2023-08-16T22:51:36.650Z,40.81
2023-08-16T22:54:07.687Z,40.90
2023-08-16T22:56:41.482Z,40.95
2023-08-16T22:59:12.183Z,41.13
2023-08-16T23:01:42.838Z,41.23
2023-08-16T23:04:13.661Z,41.34
2023-08-16T23:06:44.306Z,41.49
2023-08-16T23:09:14.995Z,41.65
2023-08-16T23:11:47.475Z,41.64
2023-08-16T23:14:20.433Z,41.79
2023-08-16T23:16:52.418Z,41.84
2023-08-16T23:19:22.896Z,42.04
2023-08-16T23:21:53.943Z,42.01
2023-08-16T23:24:24.809Z,42.07
2023-08-16T23:26:55.871Z,42.08
2023-08-16T23:29:26.427Z,42.21
2023-08-16T23:31:57.068Z,42.32
2023-08-16T23:34:27.550Z,42.38
2023-08-16T23:36:58.250Z,42.58
2023-08-16T23:39:29.011Z,42.69
2023-08-16T23:41:59.762Z,42.99
2023-08-16T23:44:32.447Z,43.02
2023-08-16T23:47:04.451Z,43.11
2023-08-16T23:49:37.178Z,43.11
2023-08-16T23:52:08.257Z,43.33
2023-08-16T23:54:38.818Z,43.29
2023-08-16T23:57:09.516Z,43.51
2023-08-16T23:59:46.647Z,43.45
